Helmsange, Luxembourg
Current Conditions -  °F | °C
As of 7:20 AM on Friday 19 Dec 2014 (Local Time) from ELLX Reporting Station
Drizzle Drizzle  
Wind Chill: 42°   Ceiling: 500
Heat Index: 48°   Visibility: 1.8mi
Dew Point: 46°   Wind: 15mph
Humidity: 93%   Direction: 220°SW
Pressure: 30.03"   Gusts: NA
Location:  49.65°N, 6.14°E
Report Text: ELLX 190620Z 22013KT 190V260 3000 -DZ BR BKN005 09/08 Q1017 TEMPO 24015G30KT
Loading
Personal Weather Stations






























Interactive Weather Map New forecast layout! Learn more

10-Day Weather Forecast

Advertisements
Track Severe Weather on mobile